createdAt,value
2019-01-28T00:01:35.183Z,9.80
2019-01-28T00:04:03.355Z,8.50
2019-01-28T00:06:31.535Z,10.10
2019-01-28T00:08:59.748Z,10.90
2019-01-28T00:11:27.976Z,11.67
2019-01-28T00:13:56.190Z,10.53
2019-01-28T00:16:24.383Z,8.93
2019-01-28T00:18:52.602Z,10.07
2019-01-28T00:21:20.884Z,7.93
2019-01-28T00:23:49.088Z,9.57
2019-01-28T00:26:17.324Z,9.53
2019-01-28T00:28:45.497Z,12.33
2019-01-28T00:31:13.676Z,10.00
2019-01-28T00:33:41.889Z,10.80
2019-01-28T00:36:10.142Z,10.83
2019-01-28T00:38:38.349Z,13.70
2019-01-28T00:41:06.594Z,10.47
2019-01-28T00:43:34.844Z,8.60
2019-01-28T00:46:03.064Z,11.40
2019-01-28T00:48:31.257Z,9.63
2019-01-28T00:50:59.438Z,9.93
2019-01-28T00:53:27.669Z,8.03
2019-01-28T00:55:55.844Z,10.23
2019-01-28T00:58:24.027Z,10.27
2019-01-28T01:00:52.288Z,10.07
2019-01-28T01:03:20.519Z,8.67
2019-01-28T01:05:48.683Z,8.90
2019-01-28T01:08:16.899Z,10.00
2019-01-28T01:10:45.197Z,9.53
2019-01-28T01:13:13.396Z,8.57
2019-01-28T01:15:41.580Z,8.53
2019-01-28T01:18:09.759Z,9.33
2019-01-28T01:20:37.947Z,10.17
2019-01-28T01:23:06.157Z,11.83
2019-01-28T01:25:34.388Z,11.23
2019-01-28T01:28:02.624Z,10.10
2019-01-28T01:30:30.879Z,12.00
2019-01-28T01:32:59.111Z,11.30
2019-01-28T01:35:27.283Z,9.60
2019-01-28T01:37:55.463Z,9.33
2019-01-28T01:40:23.737Z,9.97
2019-01-28T01:42:51.937Z,17.40
2019-01-28T01:45:20.173Z,11.13
2019-01-28T01:47:48.408Z,10.33
2019-01-28T01:50:16.614Z,10.67
2019-01-28T01:52:44.791Z,12.23
2019-01-28T01:55:13.759Z,11.30
2019-01-28T01:57:41.945Z,12.97
2019-01-28T02:00:11.520Z,12.03
2019-01-28T02:02:39.704Z,12.53
2019-01-28T02:05:08.092Z,13.10
2019-01-28T02:07:36.288Z,11.50
2019-01-28T02:10:06.047Z,14.07
2019-01-28T02:12:34.264Z,15.17
2019-01-28T02:15:02.469Z,13.03
2019-01-28T02:17:30.676Z,15.73
2019-01-28T02:19:59.828Z,16.07
2019-01-28T02:22:28.027Z,16.03
2019-01-28T02:24:56.339Z,14.77
2019-01-28T02:27:24.612Z,15.97
2019-01-28T02:29:52.851Z,17.83
2019-01-28T02:32:21.048Z,15.35
2019-01-28T02:34:49.271Z,18.30
2019-01-28T02:37:17.489Z,17.03
2019-01-28T02:39:45.669Z,17.07
2019-01-28T02:42:15.276Z,15.93
2019-01-28T02:44:43.550Z,17.00
2019-01-28T02:47:11.784Z,17.80
2019-01-28T02:49:40.003Z,19.10
2019-01-28T02:52:08.225Z,18.87
2019-01-28T02:54:36.483Z,19.60
2019-01-28T02:57:04.709Z,17.93
2019-01-28T02:59:33.829Z,18.87
2019-01-28T03:02:02.015Z,23.20
2019-01-28T03:04:30.197Z,18.10
2019-01-28T03:06:58.432Z,20.17
2019-01-28T03:09:26.611Z,20.00
2019-01-28T03:11:54.837Z,23.60
2019-01-28T03:14:23.053Z,21.63
2019-01-28T03:16:52.129Z,21.03
2019-01-28T03:19:20.345Z,20.33
2019-01-28T03:21:48.594Z,17.50
2019-01-28T03:24:16.769Z,18.67
2019-01-28T03:26:44.947Z,13.50
2019-01-28T03:29:13.148Z,19.40
2019-01-28T03:31:41.338Z,17.10
2019-01-28T03:34:09.547Z,12.80
2019-01-28T03:36:37.812Z,13.23
2019-01-28T03:39:07.163Z,13.53
2019-01-28T03:41:35.367Z,13.50
2019-01-28T03:44:04.095Z,12.17
2019-01-28T03:46:32.319Z,10.50
2019-01-28T03:49:00.537Z,8.90
2019-01-28T03:53:56.838Z,13.60
2019-01-28T03:56:25.048Z,11.50
2019-01-28T03:58:53.260Z,17.30
2019-01-28T04:01:21.473Z,14.10
2019-01-28T04:03:49.761Z,9.15
2019-01-28T04:06:17.948Z,13.43
2019-01-28T04:08:46.198Z,13.77
2019-01-28T04:13:41.736Z,13.57
2019-01-28T04:16:09.971Z,17.87
2019-01-28T04:18:38.185Z,10.87
2019-01-28T04:21:06.388Z,12.90
2019-01-28T04:23:34.677Z,7.20
2019-01-28T04:26:02.903Z,8.30
2019-01-28T04:30:58.547Z,16.30
2019-01-28T04:38:21.476Z,12.50
2019-01-28T04:40:49.696Z,9.65
2019-01-28T04:43:18.836Z,10.50
2019-01-28T04:45:47.046Z,10.43
2019-01-28T04:48:15.272Z,8.70
2019-01-28T04:50:43.549Z,8.43
2019-01-28T04:53:11.749Z,15.27
2019-01-28T04:55:39.938Z,10.87
2019-01-28T04:58:08.111Z,8.73
2019-01-28T05:00:36.337Z,10.13
2019-01-28T05:15:21.386Z,9.10
2019-01-28T05:17:49.635Z,11.83
2019-01-28T05:20:19.354Z,9.63
2019-01-28T05:22:47.624Z,10.90
2019-01-28T05:27:43.345Z,13.80
2019-01-28T05:30:19.029Z,11.50
2019-01-28T05:32:47.208Z,12.90
2019-01-28T05:35:16.592Z,18.57
2019-01-28T05:37:44.809Z,14.00
2019-01-28T05:40:14.520Z,13.27
2019-01-28T05:42:42.724Z,12.95
2019-01-28T05:45:12.475Z,9.50
2019-01-28T05:50:09.287Z,10.55
2019-01-28T05:52:37.501Z,9.40
2019-01-28T05:55:07.177Z,8.37
2019-01-28T05:57:35.464Z,10.27
2019-01-28T06:00:05.241Z,10.70
2019-01-28T06:02:33.469Z,9.77
2019-01-28T06:05:01.644Z,11.63
2019-01-28T06:07:29.880Z,13.33
2019-01-28T06:09:58.081Z,9.40
2019-01-28T06:12:26.295Z,7.43
2019-01-28T06:14:54.501Z,8.60
2019-01-28T06:17:24.137Z,9.20
2019-01-28T06:19:52.345Z,10.10
2019-01-28T06:22:20.621Z,16.27
2019-01-28T06:24:48.818Z,17.03
2019-01-28T06:27:16.999Z,12.87
2019-01-28T06:29:45.245Z,10.30
2019-01-28T06:32:13.420Z,12.10
2019-01-28T06:34:41.600Z,11.53
2019-01-28T06:37:09.825Z,15.23
2019-01-28T06:39:38.040Z,14.80
2019-01-28T06:42:06.284Z,13.50
2019-01-28T06:44:34.472Z,20.13
2019-01-28T06:47:02.689Z,12.80
2019-01-28T06:49:31.165Z,16.60
2019-01-28T06:51:59.385Z,15.23
2019-01-28T06:54:27.591Z,16.43
2019-01-28T06:56:55.772Z,13.70
2019-01-28T06:59:24.008Z,16.93
2019-01-28T07:01:52.229Z,15.70
2019-01-28T07:04:22.006Z,16.83
2019-01-28T07:06:50.221Z,14.30
2019-01-28T07:09:18.416Z,14.77
2019-01-28T07:11:46.609Z,21.13
2019-01-28T07:14:17.393Z,19.33
2019-01-28T07:16:45.848Z,14.90
2019-01-28T07:19:14.052Z,15.80
2019-01-28T07:21:42.232Z,16.20
2019-01-28T07:24:10.442Z,21.00
2019-01-28T07:26:38.685Z,17.90
2019-01-28T07:29:06.884Z,20.80
2019-01-28T07:31:35.071Z,22.97
2019-01-28T07:34:03.274Z,23.40
2019-01-28T07:36:31.447Z,26.50
2019-01-28T07:38:59.670Z,24.87
2019-01-28T07:41:28.751Z,22.40
2019-01-28T07:43:56.965Z,23.83
2019-01-28T07:46:25.156Z,23.87
2019-01-28T07:48:53.361Z,22.40
2019-01-28T07:51:21.585Z,20.43
2019-01-28T07:53:49.765Z,17.30
2019-01-28T07:56:17.940Z,20.77
2019-01-28T07:58:46.184Z,20.23
2019-01-28T08:01:14.432Z,23.73
2019-01-28T08:03:42.645Z,18.60
2019-01-28T08:06:11.003Z,20.67
2019-01-28T08:08:39.257Z,23.93
2019-01-28T08:11:07.469Z,22.27
2019-01-28T08:13:35.635Z,18.00
2019-01-28T08:16:03.997Z,18.37
2019-01-28T08:18:32.180Z,22.13
2019-01-28T08:21:00.433Z,22.37
2019-01-28T08:23:28.647Z,19.40
2019-01-28T08:25:56.853Z,22.10
2019-01-28T08:28:25.052Z,25.60
2019-01-28T08:30:53.316Z,20.23
2019-01-28T08:33:21.528Z,22.30
2019-01-28T08:35:49.752Z,19.73
2019-01-28T08:38:17.933Z,22.10
2019-01-28T08:40:46.146Z,24.93
2019-01-28T08:43:14.725Z,19.97
2019-01-28T08:45:42.988Z,21.70
2019-01-28T08:48:17.862Z,14.47
2019-01-28T08:50:41.067Z,20.77
2019-01-28T08:53:09.281Z,16.90
2019-01-28T08:55:37.550Z,17.40
2019-01-28T08:58:06.104Z,16.00
2019-01-28T09:00:38.434Z,21.70
2019-01-28T09:03:06.781Z,16.87
2019-01-28T09:05:35.012Z,17.03
2019-01-28T09:08:03.364Z,20.70
2019-01-28T09:10:31.934Z,17.73
2019-01-28T09:13:00.145Z,15.50
2019-01-28T09:15:28.636Z,15.30
2019-01-28T09:17:56.987Z,21.80
2019-01-28T09:20:29.427Z,17.77
2019-01-28T09:22:57.613Z,16.40
2019-01-28T09:25:25.817Z,16.00
2019-01-28T09:27:54.018Z,19.43
2019-01-28T09:30:23.781Z,15.40
2019-01-28T09:32:51.997Z,14.80
2019-01-28T09:35:20.168Z,15.67
2019-01-28T09:37:48.520Z,16.40
2019-01-28T09:40:18.280Z,13.20
2019-01-28T09:42:46.459Z,13.30
2019-01-28T09:45:16.276Z,12.20
2019-01-28T09:47:44.485Z,12.13
2019-01-28T09:50:13.195Z,13.37
2019-01-28T09:52:41.649Z,11.47
2019-01-28T09:55:11.132Z,11.83
2019-01-28T09:57:39.384Z,13.70
2019-01-28T10:00:09.161Z,12.30
2019-01-28T10:02:37.433Z,11.47
2019-01-28T10:05:06.116Z,9.63
2019-01-28T10:07:35.192Z,12.40
2019-01-28T10:10:04.733Z,11.20
2019-01-28T10:12:34.569Z,14.10
2019-01-28T10:15:04.333Z,9.60
2019-01-28T10:17:32.556Z,12.10
2019-01-28T10:20:00.774Z,10.60
2019-01-28T10:22:28.955Z,8.77
2019-01-28T10:24:57.162Z,10.40
2019-01-28T10:27:25.367Z,9.63
2019-01-28T10:29:53.548Z,13.40
2019-01-28T10:32:21.739Z,10.60
2019-01-28T10:34:51.637Z,10.83
2019-01-28T10:37:19.990Z,9.83
2019-01-28T10:39:48.181Z,7.43
2019-01-28T10:42:16.441Z,8.57
2019-01-28T10:44:44.661Z,9.07
2019-01-28T10:47:12.905Z,12.50
2019-01-28T10:49:41.117Z,8.27
2019-01-28T10:52:09.314Z,7.17
2019-01-28T10:54:37.543Z,8.60
2019-01-28T10:57:05.711Z,8.80
2019-01-28T10:59:33.901Z,8.17
2019-01-28T11:02:02.101Z,8.43
2019-01-28T11:04:30.308Z,8.47
2019-01-28T11:06:58.568Z,12.47
2019-01-28T11:09:26.792Z,7.90
2019-01-28T11:11:55.074Z,9.00
2019-01-28T11:14:23.303Z,8.47
2019-01-28T11:16:51.531Z,6.40
2019-01-28T11:19:19.771Z,7.80
2019-01-28T11:21:48.051Z,7.10
2019-01-28T11:24:16.446Z,9.13
2019-01-28T11:26:44.760Z,11.03
2019-01-28T11:29:12.968Z,9.67
2019-01-28T11:31:41.343Z,6.80
2019-01-28T11:34:09.689Z,7.93
2019-01-28T11:36:37.887Z,6.50
2019-01-28T11:39:07.122Z,5.53
2019-01-28T11:41:35.322Z,5.67
2019-01-28T11:44:03.712Z,9.40
2019-01-28T11:46:32.031Z,6.00
2019-01-28T11:49:05.787Z,6.87
2019-01-28T11:51:30.124Z,7.23
2019-01-28T11:53:58.309Z,5.43
2019-01-28T11:56:26.505Z,6.80
2019-01-28T11:58:54.727Z,7.47
2019-01-28T12:01:23.418Z,6.73
2019-01-28T12:03:51.614Z,5.83
2019-01-28T12:06:19.929Z,9.50
2019-01-28T12:08:48.101Z,7.37
2019-01-28T12:11:16.302Z,7.37
2019-01-28T12:13:44.480Z,3.73
2019-01-28T12:16:12.873Z,7.90
2019-01-28T12:21:08.425Z,5.60
2019-01-28T12:23:36.681Z,4.23
2019-01-28T12:26:04.847Z,4.23
2019-01-28T12:28:33.050Z,3.83
2019-01-28T12:31:01.304Z,6.13
2019-01-28T12:33:29.552Z,6.60
2019-01-28T12:35:57.796Z,5.27
2019-01-28T12:38:25.975Z,5.90
2019-01-28T12:40:54.146Z,4.13
2019-01-28T12:43:22.361Z,3.67
2019-01-28T12:45:50.563Z,5.33
2019-01-28T12:48:18.737Z,4.77
2019-01-28T12:50:46.992Z,4.17
2019-01-28T12:53:15.172Z,3.93
2019-01-28T12:55:43.345Z,3.80
2019-01-28T12:58:11.521Z,3.90
2019-01-28T13:00:42.669Z,4.57
2019-01-28T13:52:20.694Z,3.80
2019-01-28T13:54:48.909Z,4.10
2019-01-28T13:57:17.074Z,2.33
2019-01-28T13:59:45.291Z,3.10
2019-01-28T14:02:13.494Z,4.40
2019-01-28T14:04:41.669Z,2.23
2019-01-28T14:07:09.856Z,2.73
2019-01-28T14:09:38.039Z,3.53
2019-01-28T14:12:06.220Z,4.80
2019-01-28T14:14:34.432Z,9.53
2019-01-28T14:17:02.643Z,12.70
2019-01-28T14:19:30.864Z,4.47
2019-01-28T14:21:59.067Z,5.90
2019-01-28T14:24:27.242Z,2.73
2019-01-28T14:26:55.420Z,5.67
2019-01-28T14:29:23.608Z,4.67
2019-01-28T14:31:51.786Z,3.53
2019-01-28T14:34:20.001Z,4.97
2019-01-28T14:36:48.179Z,3.73
2019-01-28T14:39:16.365Z,2.70
2019-01-28T14:41:44.587Z,3.10
2019-01-28T14:44:13.583Z,2.90
2019-01-28T14:46:41.969Z,6.67
2019-01-28T14:49:10.175Z,5.03
2019-01-28T14:51:38.452Z,3.30
2019-01-28T14:54:06.685Z,5.93
2019-01-28T14:56:34.928Z,5.77
2019-01-28T14:59:03.088Z,7.20
2019-01-28T15:01:31.269Z,6.07
2019-01-28T15:03:59.487Z,3.83
2019-01-28T15:06:27.651Z,3.53
2019-01-28T15:08:55.893Z,3.60
2019-01-28T15:11:24.131Z,3.87
2019-01-28T15:13:52.445Z,4.43
2019-01-28T15:16:20.616Z,6.83
2019-01-28T15:18:48.833Z,4.50
2019-01-28T15:21:17.048Z,7.00
2019-01-28T15:23:45.240Z,9.20
2019-01-28T15:26:13.423Z,7.13
2019-01-28T15:28:41.592Z,5.20
2019-01-28T15:31:09.821Z,7.63
2019-01-28T15:33:38.097Z,8.83
2019-01-28T15:36:06.357Z,6.77
2019-01-28T15:38:34.542Z,3.87
2019-01-28T15:41:02.758Z,6.13
2019-01-28T15:43:30.929Z,4.50
2019-01-28T15:45:59.129Z,2.73
2019-01-28T15:48:27.319Z,5.13
2019-01-28T15:50:55.534Z,4.17
2019-01-28T15:53:23.757Z,4.87
2019-01-28T15:55:51.965Z,3.70
2019-01-28T15:58:20.182Z,2.90
2019-01-28T16:00:48.445Z,3.30
2019-01-28T16:03:16.720Z,3.60
2019-01-28T16:05:44.918Z,3.90
2019-01-28T16:08:13.133Z,3.50
2019-01-28T16:10:41.368Z,5.57
2019-01-28T16:13:09.593Z,4.33
2019-01-28T16:15:39.085Z,5.10
2019-01-28T16:18:09.070Z,9.70
2019-01-28T16:20:37.449Z,4.20
2019-01-28T16:23:06.133Z,4.90
2019-01-28T16:25:34.311Z,3.07
2019-01-28T16:28:02.507Z,6.60
2019-01-28T16:30:31.339Z,12.93
2019-01-28T16:32:59.520Z,5.53
2019-01-28T16:35:27.801Z,6.00
2019-01-28T16:37:56.025Z,10.50
2019-01-28T16:40:28.696Z,10.67
2019-01-28T16:42:57.481Z,11.93
2019-01-28T16:45:25.753Z,8.93
2019-01-28T16:47:53.940Z,5.65
2019-01-28T16:50:31.868Z,4.30
2019-01-28T16:55:27.420Z,5.50
2019-01-28T17:00:33.083Z,9.10
2019-01-28T17:03:01.288Z,7.80
2019-01-28T17:05:29.769Z,8.70
2019-01-28T17:07:57.966Z,9.83
2019-01-28T17:10:26.152Z,5.95
2019-01-28T17:12:54.328Z,5.75
2019-01-28T17:15:22.907Z,7.23
2019-01-28T17:17:51.115Z,8.40
2019-01-28T17:20:20.157Z,6.10
2019-01-28T17:22:48.375Z,5.93
2019-01-28T17:25:18.120Z,5.75
2019-01-28T17:27:46.304Z,9.60
2019-01-28T17:30:16.059Z,12.33
2019-01-28T17:32:44.269Z,5.00
2019-01-28T17:35:12.536Z,6.67
2019-01-28T17:37:40.715Z,7.50
2019-01-28T17:40:13.184Z,6.90
2019-01-28T17:42:41.396Z,5.30
2019-01-28T17:45:10.983Z,8.50
2019-01-28T17:47:40.593Z,6.33
2019-01-28T17:50:10.493Z,7.30
2019-01-28T17:52:38.721Z,5.57
2019-01-28T17:55:08.143Z,5.80
2019-01-28T17:57:36.405Z,7.37
2019-01-28T18:00:06.154Z,6.57
2019-01-28T18:02:34.361Z,9.10
2019-01-28T18:05:02.531Z,6.50
2019-01-28T18:07:30.747Z,7.00
2019-01-28T18:09:58.953Z,8.90
2019-01-28T18:12:27.122Z,9.57
2019-01-28T18:14:55.300Z,9.20
2019-01-28T18:17:23.494Z,9.53
2019-01-28T18:19:51.675Z,8.27
2019-01-28T18:22:19.856Z,9.60
2019-01-28T18:24:48.026Z,6.75
2019-01-28T18:27:16.211Z,7.13
2019-01-28T18:29:44.421Z,8.67
2019-01-28T18:32:12.642Z,10.70
2019-01-28T18:34:42.205Z,11.43
2019-01-28T18:37:10.406Z,12.20
2019-01-28T18:39:38.604Z,12.20
2019-01-28T18:42:07.745Z,12.03
2019-01-28T18:44:35.952Z,11.47
2019-01-28T18:47:04.200Z,10.53
2019-01-28T18:49:32.419Z,12.50
2019-01-28T18:52:00.609Z,12.15
2019-01-28T18:54:28.838Z,13.80
2019-01-28T18:56:57.032Z,13.20
2019-01-28T18:59:25.281Z,15.80
2019-01-28T19:01:53.468Z,19.47
2019-01-28T19:04:21.652Z,17.70
2019-01-28T19:06:51.525Z,13.97
2019-01-28T19:09:21.475Z,15.17
2019-01-28T19:11:53.952Z,17.80
2019-01-28T19:14:23.777Z,31.10
2019-01-28T19:16:57.435Z,28.70
2019-01-28T19:19:32.929Z,27.57
2019-01-28T19:22:02.780Z,47.00
2019-01-28T19:24:30.984Z,27.47
2019-01-28T19:26:59.202Z,25.87
2019-01-28T19:29:27.509Z,37.70
2019-01-28T19:31:55.721Z,26.90
2019-01-28T19:34:23.979Z,27.20
2019-01-28T19:36:53.172Z,27.87
2019-01-28T19:39:21.405Z,29.07
2019-01-28T19:41:49.588Z,18.30
2019-01-28T19:44:17.853Z,20.57
2019-01-28T19:46:46.069Z,13.93
2019-01-28T19:49:14.313Z,14.60
2019-01-28T19:51:42.553Z,20.27
2019-01-28T19:54:10.729Z,15.20
2019-01-28T19:56:38.962Z,16.40
2019-01-28T19:59:07.164Z,19.23
2019-01-28T20:01:35.410Z,13.60
2019-01-28T20:04:03.680Z,15.50
2019-01-28T20:06:31.902Z,16.60
2019-01-28T20:09:00.081Z,15.40
2019-01-28T20:11:28.347Z,18.07
2019-01-28T20:13:56.565Z,18.67
2019-01-28T20:16:26.789Z,16.30
2019-01-28T20:18:55.034Z,18.27
2019-01-28T20:21:24.111Z,18.10
2019-01-28T20:23:52.500Z,18.63
2019-01-28T20:26:20.735Z,19.00
2019-01-28T20:28:49.061Z,20.17
2019-01-28T20:31:17.317Z,19.80
2019-01-28T20:33:45.534Z,22.97
2019-01-28T20:36:13.769Z,21.47
2019-01-28T20:38:42.020Z,21.67
2019-01-28T20:41:10.203Z,23.27
2019-01-28T20:43:38.387Z,22.10
2019-01-28T20:46:06.611Z,23.27
2019-01-28T20:48:34.928Z,24.47
2019-01-28T20:51:03.232Z,21.00
2019-01-28T20:53:31.478Z,21.10
2019-01-28T20:56:01.413Z,23.90
2019-01-28T20:58:29.691Z,21.40
2019-01-28T21:00:58.023Z,24.40
2019-01-28T21:03:26.272Z,23.00
2019-01-28T21:05:54.493Z,25.77
2019-01-28T21:08:22.725Z,25.23
2019-01-28T21:10:50.917Z,25.03
2019-01-28T21:13:20.871Z,22.23
2019-01-28T21:15:49.093Z,30.77
2019-01-28T21:18:17.295Z,28.87
2019-01-28T21:20:45.487Z,27.97
2019-01-28T21:23:14.537Z,29.40
2019-01-28T21:25:44.423Z,30.97
2019-01-28T21:28:12.631Z,28.30
2019-01-28T21:30:40.924Z,27.73
2019-01-28T21:33:09.100Z,32.70
2019-01-28T21:35:55.527Z,29.80
2019-01-28T21:38:25.385Z,31.60
2019-01-28T21:40:53.598Z,31.27
2019-01-28T21:43:21.804Z,30.17
2019-01-28T21:45:50.037Z,33.07
2019-01-28T21:48:18.228Z,31.70
2019-01-28T21:50:46.472Z,31.47
2019-01-28T21:53:14.676Z,34.77
2019-01-28T21:55:42.898Z,35.67
2019-01-28T21:58:11.149Z,31.40
2019-01-28T22:00:39.333Z,31.47
2019-01-28T22:03:07.551Z,29.20
2019-01-28T22:05:35.807Z,31.70
2019-01-28T22:08:04.253Z,36.40
2019-01-28T22:10:32.497Z,29.80
2019-01-28T22:13:00.695Z,33.53
2019-01-28T22:15:28.955Z,29.10
2019-01-28T22:17:57.244Z,34.50
2019-01-28T22:20:25.444Z,31.23
2019-01-28T22:22:53.632Z,34.20
2019-01-28T22:25:21.866Z,33.23
2019-01-28T22:27:57.209Z,30.90
2019-01-28T22:30:21.505Z,33.40
2019-01-28T22:32:49.732Z,30.57
2019-01-28T22:35:17.947Z,32.27
2019-01-28T22:37:46.131Z,33.53
2019-01-28T22:40:15.730Z,32.20
2019-01-28T22:45:12.624Z,35.30
2019-01-28T22:47:40.820Z,33.30
2019-01-28T22:52:36.427Z,33.05
2019-01-28T23:09:49.913Z,33.80
2019-01-28T23:22:15.877Z,34.20
2019-01-28T23:24:37.411Z,32.70
2019-01-28T23:32:00.404Z,33.57
2019-01-28T23:34:28.600Z,36.70
2019-01-28T23:36:56.817Z,33.00
2019-01-28T23:39:25.025Z,31.80
2019-01-28T23:41:53.249Z,32.70
2019-01-28T23:44:21.426Z,29.63
2019-01-28T23:46:49.619Z,35.17
2019-01-28T23:49:17.814Z,30.80
2019-01-28T23:51:46.072Z,32.30
2019-01-28T23:54:14.269Z,34.30
2019-01-28T23:56:42.488Z,33.83
2019-01-28T23:59:10.703Z,30.70
